Time;durP1;ratioP1;P1;durP2;ratioP2;P2;SDS_P1;SDS_P2;PMS_P1;PMS_P2;Temp;Humidity;BMP_temperature;BMP_pressure;BME280_temperature;BME280_humidity;BME280_pressure;Samples;Min_cycle;Max_cycle;Signal;HPM_P1;HPM_P2
2024/01/18 00:00:38;;;;;;;0.60;0.60;;;18.90;38.00;;;;;;8331917;28;20510;-51
2024/01/18 00:04:41;;;;;;;0.35;0.35;;;18.90;37.80;;;;;;8331411;28;20466;-48
2024/01/18 00:08:42;;;;;;;0.50;0.50;;;18.90;37.80;;;;;;8331288;28;20057;-48
2024/01/18 00:12:42;;;;;;;1.17;0.40;;;18.90;37.60;;;;;;8331433;28;20045;-49
2024/01/18 00:16:43;;;;;;;0.50;0.50;;;18.90;37.60;;;;;;8329811;28;20160;-49
2024/01/18 00:20:44;;;;;;;0.40;0.40;;;19.00;37.50;;;;;;8331421;28;20116;-49
2024/01/18 00:24:44;;;;;;;0.38;0.38;;;18.90;37.60;;;;;;8330553;28;20761;-49
2024/01/18 00:28:45;;;;;;;0.93;0.60;;;18.70;38.70;;;;;;8329389;28;20300;-48
2024/01/18 00:32:46;;;;;;;0.57;0.40;;;18.60;39.20;;;;;;8345984;28;20483;-48
2024/01/18 00:36:46;;;;;;;0.60;0.60;;;18.70;38.70;;;;;;8330280;28;20108;-47
2024/01/18 00:40:47;;;;;;;0.40;0.40;;;18.70;38.40;;;;;;8345642;28;20722;-45
2024/01/18 00:44:48;;;;;;;0.30;0.30;;;18.80;38.20;;;;;;8330284;28;20438;-49
2024/01/18 00:48:48;;;;;;;0.32;0.32;;;18.80;38.30;;;;;;8329910;28;20499;-47
2024/01/18 00:52:49;;;;;;;0.30;0.30;;;18.80;37.90;;;;;;8329132;28;20755;-45
2024/01/18 00:56:50;;;;;;;0.40;0.40;;;18.80;37.70;;;;;;8329967;28;20032;-46
2024/01/18 01:00:50;;;;;;;0.45;0.45;;;18.90;37.60;;;;;;8311926;28;20033;-47
2024/01/18 01:04:51;;;;;;;0.40;0.40;;;18.90;37.60;;;;;;8329505;28;20033;-46
2024/01/18 01:08:52;;;;;;;0.40;0.40;;;18.90;37.50;;;;;;8329342;28;20111;-46
2024/01/18 01:12:52;;;;;;;0.40;0.40;;;18.90;37.70;;;;;;8329454;28;20034;-48
2024/01/18 01:16:53;;;;;;;0.50;0.50;;;18.60;38.70;;;;;;8329160;28;20037;-47
2024/01/18 01:20:54;;;;;;;0.50;0.50;;;18.60;39.00;;;;;;8329195;28;20075;-47
2024/01/18 01:24:54;;;;;;;0.40;0.40;;;18.60;38.60;;;;;;8328899;28;20049;-47
2024/01/18 01:28:55;;;;;;;0.33;0.33;;;18.70;38.40;;;;;;8328792;28;20052;-46
2024/01/18 01:32:56;;;;;;;0.67;0.67;;;18.80;38.20;;;;;;8327407;28;20354;-47
2024/01/18 01:36:56;;;;;;;0.50;0.50;;;18.80;38.00;;;;;;8328547;28;20276;-46
2024/01/18 01:40:57;;;;;;;0.40;0.40;;;18.80;37.80;;;;;;8328511;28;20283;-46
2024/01/18 01:44:58;;;;;;;0.40;0.40;;;18.80;37.70;;;;;;8327176;28;20037;-49
2024/01/18 01:49:04;;;;;;;0.60;0.30;;;18.80;37.60;;;;;;8326849;28;20040;-48
2024/01/18 01:53:07;;;;;;;0.50;0.50;;;18.90;38.10;;;;;;8328198;28;20029;-49
2024/01/18 01:57:08;;;;;;;0.45;0.45;;;18.90;37.50;;;;;;8327776;28;20514;-48
2024/01/18 02:01:10;;;;;;;0.30;0.30;;;18.80;37.70;;;;;;8328342;28;20033;-48
2024/01/18 02:05:12;;;;;;;0.40;0.40;;;18.60;38.80;;;;;;8327572;28;21772;-48
2024/01/18 02:09:13;;;;;;;0.60;0.45;;;18.60;38.90;;;;;;8327420;28;20045;-48
2024/01/18 02:13:15;;;;;;;0.93;0.68;;;18.60;38.60;;;;;;8327570;28;20075;-51
2024/01/18 02:17:16;;;;;;;0.40;0.40;;;18.70;38.30;;;;;;8327539;28;20044;-48
2024/01/18 02:21:17;;;;;;;0.47;0.47;;;18.70;38.10;;;;;;8326094;28;20048;-51
2024/01/18 02:25:24;;;;;;;0.60;0.60;;;18.70;37.90;;;;;;8327212;28;20026;-49
2024/01/18 02:29:25;;;;;;;0.47;0.47;;;18.80;37.80;;;;;;8327253;28;20044;-49
2024/01/18 02:33:26;;;;;;;0.52;0.52;;;18.80;37.70;;;;;;8325823;28;20040;-48
2024/01/18 02:37:27;;;;;;;0.50;0.50;;;18.80;37.60;;;;;;8326876;28;20037;-48
2024/01/18 02:41:28;;;;;;;0.50;0.30;;;18.80;38.00;;;;;;8325664;28;20056;-50
2024/01/18 02:45:29;;;;;;;0.43;0.40;;;18.80;37.40;;;;;;8327455;28;20033;-50
2024/01/18 02:49:30;;;;;;;0.77;0.57;;;18.80;37.90;;;;;;8326675;28;20036;-49
2024/01/18 02:53:31;;;;;;;0.30;0.30;;;18.60;38.80;;;;;;8326766;28;20038;-48
2024/01/18 02:57:32;;;;;;;0.50;0.50;;;18.50;38.80;;;;;;8325324;28;20061;-49
2024/01/18 03:01:32;;;;;;;0.40;0.40;;;18.60;38.50;;;;;;8326728;28;20044;-48
2024/01/18 03:05:34;;;;;;;0.63;0.50;;;18.60;38.20;;;;;;8326580;28;20833;-47
2024/01/18 03:09:35;;;;;;;0.47;0.47;;;18.70;38.00;;;;;;8326310;28;20053;-49
2024/01/18 03:13:36;;;;;;;0.30;0.30;;;18.80;37.80;;;;;;8326441;28;20472;-49
2024/01/18 03:17:36;;;;;;;0.35;0.35;;;18.80;37.70;;;;;;8330953;28;20391;-48
2024/01/18 03:21:37;;;;;;;0.40;0.40;;;18.80;37.60;;;;;;8332756;28;20033;-50
2024/01/18 03:25:38;;;;;;;0.40;0.40;;;18.80;37.60;;;;;;8332858;28;20390;-49
2024/01/18 03:29:39;;;;;;;0.50;0.50;;;18.80;37.50;;;;;;8331932;28;20033;-49
2024/01/18 03:33:39;;;;;;;0.68;0.40;;;18.80;37.40;;;;;;8332406;28;20036;-49
2024/01/18 03:37:40;;;;;;;0.40;0.40;;;18.70;38.00;;;;;;8332447;28;20029;-49
2024/01/18 03:41:41;;;;;;;0.40;0.40;;;18.50;38.70;;;;;;8332117;28;20048;-49
2024/01/18 03:45:41;;;;;;;0.40;0.40;;;18.50;38.80;;;;;;8331895;28;20099;-48
2024/01/18 03:49:43;;;;;;;0.50;0.50;;;18.60;38.50;;;;;;8331914;28;20406;-49
2024/01/18 03:53:43;;;;;;;0.50;0.50;;;18.60;38.20;;;;;;8331828;28;20464;-48
2024/01/18 03:57:44;;;;;;;0.32;0.32;;;18.60;38.00;;;;;;8332038;28;20395;-50
2024/01/18 04:01:45;;;;;;;0.40;0.40;;;18.70;37.80;;;;;;8331651;28;20029;-48
2024/01/18 04:05:46;;;;;;;0.50;0.50;;;18.70;37.70;;;;;;8330086;28;20049;-48
2024/01/18 04:09:46;;;;;;;0.40;0.40;;;18.70;37.60;;;;;;8331254;28;20057;-49
2024/01/18 04:13:47;;;;;;;0.60;0.55;;;18.70;37.50;;;;;;8329820;28;20604;-48
2024/01/18 04:17:48;;;;;;;0.30;0.30;;;18.80;37.50;;;;;;8330969;28;20048;-49
2024/01/18 04:21:49;;;;;;;0.30;0.30;;;18.80;37.40;;;;;;8330995;28;20399;-47
2024/01/18 04:25:53;;;;;;;0.40;0.40;;;18.70;38.10;;;;;;8329398;28;20037;-48
2024/01/18 04:29:54;;;;;;;0.45;0.40;;;18.50;38.80;;;;;;8330394;28;20025;-48
2024/01/18 04:33:56;;;;;;;0.40;0.40;;;18.50;38.70;;;;;;8330391;28;20029;-47
2024/01/18 04:37:56;;;;;;;;;;;18.60;38.40;;;;;;8330776;28;20442;-50
2024/01/18 04:41:57;;;;;;;0.37;0.37;;;18.60;38.10;;;;;;8330111;28;20245;-48
2024/01/18 04:45:58;;;;;;;0.63;0.40;;;18.60;38.00;;;;;;8330148;28;20022;-48
2024/01/18 04:49:58;;;;;;;0.52;0.50;;;18.70;37.80;;;;;;8330157;28;20025;-47
2024/01/18 04:53:59;;;;;;;0.30;0.30;;;18.70;37.60;;;;;;8329980;28;20030;-50
2024/01/18 04:58:00;;;;;;;0.50;0.50;;;18.70;37.50;;;;;;8329822;28;20337;-47
2024/01/18 05:02:00;;;;;;;0.40;0.40;;;18.80;37.50;;;;;;8329721;28;20037;-47
2024/01/18 05:06:01;;;;;;;0.43;0.43;;;18.70;37.40;;;;;;8329529;28;20112;-48
2024/01/18 05:10:05;;;;;;;0.30;0.30;;;18.80;37.40;;;;;;8328241;28;20045;-49
2024/01/18 05:14:06;;;;;;;0.30;0.30;;;18.60;38.10;;;;;;8329720;28;20037;-48
2024/01/18 05:18:07;;;;;;;0.30;0.30;;;18.50;38.90;;;;;;8329347;28;20030;-48
2024/01/18 05:22:08;;;;;;;0.40;0.40;;;18.50;38.60;;;;;;8328982;28;20033;-49
2024/01/18 05:26:09;;;;;;;0.45;0.45;;;18.70;38.20;;;;;;8328690;28;20049;-48
2024/01/18 05:30:10;;;;;;;0.68;0.40;;;18.80;37.80;;;;;;8327452;28;20048;-48
2024/01/18 05:34:10;;;;;;;;;;;18.80;37.60;;;;;;8329027;28;20051;-48
2024/01/18 05:38:11;;;;;;;0.30;0.30;;;18.90;37.40;;;;;;8329018;28;19909;-49
2024/01/18 05:42:12;;;;;;;0.30;0.30;;;18.90;37.30;;;;;;8328256;28;20037;-49
2024/01/18 05:46:13;;;;;;;0.45;0.45;;;19.00;37.10;;;;;;8328399;28;20034;-49
2024/01/18 05:50:13;;;;;;;0.80;0.57;;;19.00;37.00;;;;;;8328078;28;20453;-49
2024/01/18 05:54:14;;;;;;;0.50;0.50;;;19.00;37.00;;;;;;8328462;28;20537;-49
2024/01/18 05:58:15;;;;;;;0.52;0.32;;;19.00;36.90;;;;;;8328627;28;20038;-49
2024/01/18 06:02:16;;;;;;;0.50;0.50;;;18.80;37.80;;;;;;8327915;28;20048;-47
2024/01/18 06:06:16;;;;;;;0.20;0.20;;;18.60;38.60;;;;;;8327725;28;20512;-48
2024/01/18 06:10:17;;;;;;;0.30;0.30;;;18.70;38.30;;;;;;8327366;28;20033;-47
2024/01/18 06:14:18;;;;;;;0.30;0.30;;;18.70;38.00;;;;;;8327473;28;20033;-49
2024/01/18 06:18:19;;;;;;;0.30;0.30;;;18.80;37.70;;;;;;8327435;28;20033;-49
2024/01/18 06:22:21;;;;;;;0.43;0.40;;;18.90;37.60;;;;;;8327531;28;20041;-47
2024/01/18 06:26:22;;;;;;;0.43;0.40;;;18.90;37.40;;;;;;8327114;28;20541;-47
2024/01/18 06:30:24;;;;;;;0.40;0.40;;;18.90;37.30;;;;;;8325902;28;20372;-48
2024/01/18 06:34:24;;;;;;;0.32;0.32;;;19.00;37.20;;;;;;8327080;28;20033;-48
2024/01/18 06:38:26;;;;;;;0.30;0.30;;;19.00;37.00;;;;;;8326962;28;20065;-50
2024/01/18 06:42:26;;;;;;;0.20;0.20;;;19.00;37.00;;;;;;8323431;28;20041;-48
2024/01/18 06:46:29;;;;;;;0.30;0.30;;;19.00;37.00;;;;;;8326825;28;20581;-48
2024/01/18 06:50:30;;;;;;;0.40;0.40;;;18.80;38.00;;;;;;8325683;28;20112;-47
2024/01/18 06:54:31;;;;;;;0.40;0.40;;;18.70;38.60;;;;;;8321221;28;20029;-49
2024/01/18 06:58:32;;;;;;;0.30;0.30;;;18.80;38.30;;;;;;8316022;28;20104;-47
2024/01/18 07:02:35;;;;;;;0.30;0.30;;;18.90;38.30;;;;;;8324237;28;20041;-49
2024/01/18 07:06:36;;;;;;;0.35;0.30;;;19.00;38.10;;;;;;8326702;28;20669;-51
2024/01/18 07:10:37;;;;;;;0.33;0.33;;;19.00;37.90;;;;;;8319213;28;20506;-52
2024/01/18 07:14:37;;;;;;;0.30;0.30;;;19.10;37.70;;;;;;8320884;28;20324;-51
2024/01/18 07:18:38;;;;;;;1.35;0.50;;;19.10;37.50;;;;;;8304516;28;20025;-49
2024/01/18 07:22:39;;;;;;;0.45;0.35;;;19.10;38.20;;;;;;8326565;28;20060;-48
2024/01/18 07:26:39;;;;;;;1.75;0.32;;;19.00;38.20;;;;;;8326031;28;20091;-48
2024/01/18 07:30:40;;;;;;;1.75;0.30;;;19.10;37.90;;;;;;8326034;28;20029;-49
2024/01/18 07:34:41;;;;;;;0.75;0.40;;;19.10;37.70;;;;;;8326544;28;20538;-48
2024/01/18 07:38:42;;;;;;;1.60;0.30;;;19.10;37.60;;;;;;8326172;28;20029;-49
2024/01/18 07:42:43;;;;;;;1.00;0.43;;;19.10;37.60;;;;;;8325896;28;20484;-49
2024/01/18 07:46:44;;;;;;;0.20;0.20;;;19.10;37.40;;;;;;8324543;28;20142;-49
2024/01/18 07:50:44;;;;;;;0.20;0.20;;;19.10;37.30;;;;;;8325871;28;20518;-48
2024/01/18 07:54:45;;;;;;;0.80;0.80;;;19.10;37.20;;;;;;8325645;28;20033;-48
2024/01/18 07:58:47;;;;;;;0.35;0.30;;;19.10;37.20;;;;;;8325625;28;20033;-50
2024/01/18 08:02:48;;;;;;;0.52;0.30;;;19.20;37.20;;;;;;8327528;28;20080;-48
2024/01/18 08:06:49;;;;;;;0.30;0.30;;;19.00;38.00;;;;;;8331760;28;20041;-48
2024/01/18 08:10:49;;;;;;;0.38;0.38;;;18.80;38.90;;;;;;8331873;28;20104;-48
2024/01/18 08:14:50;;;;;;;0.30;0.28;;;18.80;38.50;;;;;;8331183;28;20034;-48
2024/01/18 08:18:51;;;;;;;0.25;0.25;;;18.90;38.20;;;;;;8330991;28;20110;-48
2024/01/18 08:22:51;;;;;;;0.30;0.30;;;19.00;37.90;;;;;;8330961;28;20086;-50
2024/01/18 08:26:52;;;;;;;0.38;0.38;;;19.00;37.70;;;;;;8330727;28;20761;-49
2024/01/18 08:30:53;;;;;;;0.50;0.50;;;19.00;37.60;;;;;;8330945;28;20044;-48
2024/01/18 08:34:55;;;;;;;0.40;0.40;;;19.10;37.50;;;;;;8330491;28;20454;-50
2024/01/18 08:38:56;;;;;;;0.30;0.30;;;19.10;37.30;;;;;;8330412;28;20029;-48
2024/01/18 08:42:57;;;;;;;0.30;0.30;;;19.10;37.30;;;;;;8330339;28;20561;-49
2024/01/18 08:46:58;;;;;;;0.30;0.30;;;19.10;37.20;;;;;;8330152;28;20041;-48
2024/01/18 08:50:58;;;;;;;0.40;0.40;;;19.10;37.10;;;;;;8330106;28;20091;-48
2024/01/18 08:54:59;;;;;;;0.40;0.30;;;18.90;38.10;;;;;;8329995;28;20091;-49
2024/01/18 08:59:00;;;;;;;0.40;0.30;;;18.80;38.90;;;;;;8329608;28;20480;-48
2024/01/18 09:03:00;;;;;;;0.30;0.30;;;18.80;38.50;;;;;;8330163;28;20080;-49
2024/01/18 09:07:02;;;;;;;0.30;0.30;;;18.90;38.10;;;;;;8329703;28;20044;-49
2024/01/18 09:11:04;;;;;;;0.30;0.30;;;19.00;37.80;;;;;;8328076;28;20145;-48
2024/01/18 09:15:05;;;;;;;0.40;0.30;;;19.00;37.60;;;;;;8328478;28;20034;-48
2024/01/18 09:19:05;;;;;;;;;;;19.10;37.50;;;;;;8329546;28;20109;-48
2024/01/18 09:23:06;;;;;;;0.30;0.30;;;19.10;37.40;;;;;;8328085;28;19909;-49
2024/01/18 09:27:07;;;;;;;2.10;0.40;;;19.10;37.30;;;;;;8328924;28;20061;-49
2024/01/18 09:31:08;;;;;;;0.25;0.25;;;19.10;37.20;;;;;;8328742;28;20042;-48
2024/01/18 09:35:08;;;;;;;1.02;0.40;;;19.10;37.10;;;;;;8328848;28;20049;-48
2024/01/18 09:39:15;;;;;;;0.20;0.20;;;19.10;37.10;;;;;;8328624;28;20080;-48
2024/01/18 09:43:17;;;;;;;0.20;0.20;;;18.90;38.10;;;;;;8328549;28;20495;-49
2024/01/18 09:47:19;;;;;;;0.30;0.30;;;18.80;38.80;;;;;;8326969;28;20033;-49
2024/01/18 09:51:23;;;;;;;0.32;0.32;;;18.90;38.50;;;;;;8328671;28;20509;-48
2024/01/18 09:55:24;;;;;;;0.30;0.30;;;18.90;38.00;;;;;;8328088;28;20037;-47
2024/01/18 09:59:27;;;;;;;0.38;0.38;;;19.00;37.80;;;;;;8328153;28;20057;-46
2024/01/18 10:03:27;;;;;;;0.32;0.32;;;19.00;37.60;;;;;;8327861;28;20037;-47
2024/01/18 10:07:28;;;;;;;0.40;0.40;;;19.10;37.50;;;;;;8327570;28;20029;-46
2024/01/18 10:11:29;;;;;;;0.30;0.30;;;19.00;37.40;;;;;;8327502;28;20053;-48
2024/01/18 10:15:33;;;;;;;0.47;0.20;;;19.10;37.30;;;;;;8327449;28;20056;-47
2024/01/18 10:19:36;;;;;;;0.30;0.30;;;19.10;37.30;;;;;;8327163;28;20287;-46
2024/01/18 10:23:37;;;;;;;0.30;0.30;;;19.10;37.20;;;;;;8327458;28;20037;-48
2024/01/18 10:27:41;;;;;;;0.57;0.40;;;19.10;37.30;;;;;;8327115;28;20037;-47
2024/01/18 10:31:42;;;;;;;0.25;0.25;;;18.90;38.40;;;;;;8327037;28;20131;-46
2024/01/18 10:35:43;;;;;;;0.13;0.13;;;18.70;38.80;;;;;;8327117;28;20084;-47
2024/01/18 10:39:46;;;;;;;;;;;18.80;38.40;;;;;;8327346;28;20033;-47
2024/01/18 10:43:49;;;;;;;0.30;0.30;;;18.90;38.00;;;;;;8326804;28;19932;-46
2024/01/18 10:47:50;;;;;;;0.43;0.30;;;19.00;37.80;;;;;;8325851;28;20045;-47
2024/01/18 10:51:52;;;;;;;0.25;0.25;;;19.00;37.60;;;;;;8326634;28;20076;-46
2024/01/18 10:55:53;;;;;;;0.20;0.20;;;19.00;37.50;;;;;;8326618;28;20116;-48
2024/01/18 10:59:55;;;;;;;0.30;0.30;;;19.10;37.40;;;;;;8326552;28;20040;-47
2024/01/18 11:03:56;;;;;;;0.20;0.20;;;19.00;37.20;;;;;;8327036;28;20092;-47
2024/01/18 11:07:58;;;;;;;0.38;0.38;;;19.10;37.20;;;;;;8326566;28;20061;-48
2024/01/18 11:12:03;;;;;;;0.30;0.30;;;19.10;37.10;;;;;;8326244;28;20140;-50
2024/01/18 11:16:04;;;;;;;0.10;0.10;;;19.10;37.40;;;;;;8326393;28;20033;-50
2024/01/18 11:20:08;;;;;;;0.20;0.20;;;18.80;38.40;;;;;;8326476;28;20458;-47
2024/01/18 11:24:13;;;;;;;0.20;0.20;;;18.70;38.70;;;;;;8326713;28;20522;-49
2024/01/18 11:28:23;;;;;;;0.38;0.30;;;18.80;38.30;;;;;;8326195;28;20021;-49
2024/01/18 11:32:24;;;;;;;0.20;0.20;;;18.90;38.00;;;;;;8326153;28;20065;-49
2024/01/18 11:36:24;;;;;;;0.30;0.30;;;19.00;37.70;;;;;;8326567;28;20037;-47
2024/01/18 11:40:25;;;;;;;0.43;0.35;;;19.00;37.60;;;;;;8332253;28;20379;-49
2024/01/18 11:44:26;;;;;;;0.20;0.20;;;19.00;37.50;;;;;;8332977;28;20521;-48
2024/01/18 11:48:27;;;;;;;0.55;0.30;;;19.00;37.40;;;;;;8331790;28;20459;-48
2024/01/18 11:52:38;;;;;;;0.30;0.30;;;19.00;37.30;;;;;;8330603;28;20034;-48
2024/01/18 11:56:40;;;;;;;0.20;0.20;;;19.10;37.20;;;;;;8331579;28;20083;-49
2024/01/18 12:00:42;;;;;;;0.20;0.20;;;19.10;37.20;;;;;;8332016;28;20116;-48
2024/01/18 12:04:42;;;;;;;0.20;0.20;;;19.00;37.60;;;;;;8331519;28;20029;-47
2024/01/18 12:08:44;;;;;;;0.22;0.22;;;18.80;38.70;;;;;;8331119;28;20503;-48
2024/01/18 12:12:45;;;;;;;0.20;0.20;;;18.70;38.60;;;;;;8331195;28;20044;-48
2024/01/18 12:16:46;;;;;;;0.98;0.40;;;18.80;38.30;;;;;;8331376;28;20033;-48
2024/01/18 12:20:48;;;;;;;0.30;0.30;;;18.90;38.00;;;;;;8331017;28;20033;-48
2024/01/18 12:24:49;;;;;;;0.20;0.20;;;19.00;37.70;;;;;;8330876;28;20044;-48
2024/01/18 12:28:51;;;;;;;0.20;0.20;;;19.00;37.60;;;;;;8330928;28;20033;-49
2024/01/18 12:32:52;;;;;;;0.20;0.20;;;19.10;37.50;;;;;;8330539;28;20439;-48
2024/01/18 12:36:53;;;;;;;0.20;0.20;;;19.10;37.30;;;;;;8331624;28;20029;-48
2024/01/18 12:40:53;;;;;;;0.20;0.20;;;19.10;37.20;;;;;;8330355;28;20048;-48
2024/01/18 12:44:56;;;;;;;0.30;0.22;;;19.10;37.10;;;;;;8330578;28;20087;-48
2024/01/18 12:48:57;;;;;;;0.20;0.20;;;19.10;37.10;;;;;;8328896;28;20037;-48
2024/01/18 12:53:00;;;;;;;0.30;0.20;;;19.00;37.60;;;;;;8330270;28;20525;-49
2024/01/18 12:57:04;;;;;;;0.30;0.30;;;18.80;38.70;;;;;;8329975;28;20491;-49
2024/01/18 13:01:04;;;;;;;0.20;0.20;;;18.80;38.70;;;;;;8329693;28;20040;-49
2024/01/18 13:05:13;;;;;;;0.20;0.20;;;18.80;38.20;;;;;;8329809;28;20037;-49
2024/01/18 13:09:15;;;;;;;0.30;0.30;;;18.90;37.90;;;;;;8329365;28;20308;-48
2024/01/18 13:13:15;;;;;;;0.20;0.20;;;19.00;37.60;;;;;;8329521;28;20025;-48
2024/01/18 13:17:17;;;;;;;0.30;0.30;;;19.00;37.50;;;;;;8329325;28;20029;-51
2024/01/18 13:21:18;;;;;;;0.40;0.32;;;19.10;37.30;;;;;;8329105;28;20116;-48
2024/01/18 13:25:20;;;;;;;0.20;0.20;;;19.10;37.20;;;;;;8328067;28;20060;-49
2024/01/18 13:29:20;;;;;;;0.47;0.32;;;19.10;37.20;;;;;;8329259;28;20116;-46
2024/01/18 13:33:21;;;;;;;0.20;0.20;;;19.10;37.10;;;;;;8328790;28;20029;-47
2024/01/18 13:37:22;;;;;;;0.20;0.20;;;19.10;37.50;;;;;;8328533;28;20104;-46
2024/01/18 13:41:26;;;;;;;0.20;0.20;;;19.00;37.70;;;;;;8328617;28;20430;-46
2024/01/18 13:45:26;;;;;;;0.40;0.40;;;18.80;38.70;;;;;;8328381;28;20044;-50
2024/01/18 13:49:27;;;;;;;0.25;0.25;;;18.80;38.40;;;;;;8328031;28;20061;-47
2024/01/18 13:53:28;;;;;;;0.20;0.20;;;18.90;38.00;;;;;;8328426;28;20399;-47
2024/01/18 13:57:30;;;;;;;0.73;0.30;;;19.00;37.70;;;;;;8327949;28;20029;-47
2024/01/18 14:01:31;;;;;;;0.52;0.32;;;19.00;37.50;;;;;;8327393;28;20099;-46
2024/01/18 14:05:31;;;;;;;0.20;0.20;;;19.10;37.40;;;;;;8326732;28;20066;-46
2024/01/18 14:09:32;;;;;;;0.10;0.10;;;19.10;37.20;;;;;;8327232;28;20064;-47
2024/01/18 14:13:35;;;;;;;0.30;0.30;;;19.10;37.20;;;;;;8328470;28;20492;-46
2024/01/18 14:17:35;;;;;;;0.40;0.30;;;19.10;37.10;;;;;;8327694;28;20021;-47
2024/01/18 14:21:36;;;;;;;0.30;0.30;;;19.10;37.00;;;;;;8327334;28;20041;-46
2024/01/18 14:25:37;;;;;;;0.20;0.20;;;19.10;36.90;;;;;;8327227;28;20041;-46
2024/01/18 14:29:37;;;;;;;0.20;0.20;;;19.00;37.90;;;;;;8327046;28;20125;-48
2024/01/18 14:33:38;;;;;;;0.20;0.20;;;18.80;38.70;;;;;;8327075;28;20296;-47
2024/01/18 14:37:39;;;;;;;0.30;0.30;;;18.90;38.30;;;;;;8327357;28;20287;-49
2024/01/18 14:41:39;;;;;;;0.25;0.25;;;19.00;37.90;;;;;;8326881;28;20065;-48
2024/01/18 14:45:41;;;;;;;0.20;0.20;;;19.00;37.60;;;;;;8327522;28;20037;-48
2024/01/18 14:49:42;;;;;;;0.30;0.30;;;19.10;37.40;;;;;;8327241;28;20498;-49
2024/01/18 14:53:44;;;;;;;0.30;0.30;;;19.10;37.30;;;;;;8326846;28;20636;-51
2024/01/18 14:57:44;;;;;;;0.20;0.20;;;19.10;37.20;;;;;;8326570;28;20391;-49
2024/01/18 15:01:45;;;;;;;0.20;0.20;;;19.10;37.00;;;;;;8326628;28;20029;-49
2024/01/18 15:05:46;;;;;;;0.20;0.20;;;19.10;37.00;;;;;;8325345;28;20054;-51
2024/01/18 15:09:47;;;;;;;0.22;0.20;;;19.10;37.00;;;;;;8326185;28;20053;-48
2024/01/18 15:13:47;;;;;;;0.28;0.20;;;19.10;36.90;;;;;;8331413;28;20064;-49
2024/01/18 15:17:48;;;;;;;0.20;0.20;;;18.90;37.90;;;;;;8331876;28;20029;-48
2024/01/18 15:21:49;;;;;;;0.20;0.20;;;18.80;38.60;;;;;;8332865;28;20547;-47
2024/01/18 15:25:49;;;;;;;0.40;0.40;;;18.80;38.20;;;;;;8331448;28;20075;-49
2024/01/18 15:29:50;;;;;;;0.15;0.15;;;18.90;37.90;;;;;;8332727;28;20037;-49
2024/01/18 15:33:51;;;;;;;0.20;0.20;;;19.00;37.60;;;;;;8332528;28;20061;-50
2024/01/18 15:37:52;;;;;;;0.20;0.20;;;19.10;37.40;;;;;;8331135;28;20025;-48
2024/01/18 15:41:54;;;;;;;0.30;0.30;;;19.10;37.30;;;;;;8332224;28;20156;-49
2024/01/18 15:45:55;;;;;;;0.30;0.30;;;19.10;37.10;;;;;;8332307;28;20034;-47
2024/01/18 15:49:56;;;;;;;0.20;0.20;;;19.10;37.00;;;;;;8332498;28;20075;-48
2024/01/18 15:53:56;;;;;;;0.20;0.20;;;19.10;36.90;;;;;;8331909;28;20037;-47
2024/01/18 15:57:57;;;;;;;0.20;0.20;;;19.20;36.90;;;;;;8331897;28;20033;-47
2024/01/18 16:01:58;;;;;;;0.30;0.30;;;19.10;36.80;;;;;;8330450;28;20043;-47
2024/01/18 16:05:59;;;;;;;0.30;0.30;;;18.90;38.00;;;;;;8331406;28;20038;-48
2024/01/18 16:10:00;;;;;;;0.20;0.20;;;18.80;38.50;;;;;;8331161;28;20065;-49
2024/01/18 16:14:01;;;;;;;0.75;0.30;;;18.90;38.20;;;;;;8331424;28;20038;-49
2024/01/18 16:18:01;;;;;;;0.20;0.20;;;19.00;37.80;;;;;;8331363;28;20038;-48
2024/01/18 16:22:02;;;;;;;0.25;0.20;;;19.00;37.60;;;;;;8330576;28;20498;-48
2024/01/18 16:26:06;;;;;;;0.30;0.30;;;19.10;37.40;;;;;;8331135;28;20033;-48
2024/01/18 16:30:07;;;;;;;0.20;0.20;;;19.10;37.20;;;;;;8330712;28;20025;-47
2024/01/18 16:34:08;;;;;;;0.25;0.25;;;19.10;37.10;;;;;;8330723;28;20022;-48
2024/01/18 16:38:09;;;;;;;0.30;0.30;;;19.10;37.00;;;;;;8330660;28;20029;-48
2024/01/18 16:42:10;;;;;;;0.30;0.30;;;19.20;37.00;;;;;;8330421;28;20479;-49
2024/01/18 16:46:10;;;;;;;0.20;0.20;;;19.10;36.80;;;;;;8330456;28;20038;-48
2024/01/18 16:50:11;;;;;;;0.30;0.30;;;19.10;36.90;;;;;;8330124;28;20099;-49
2024/01/18 16:54:12;;;;;;;0.20;0.20;;;18.90;38.10;;;;;;8329754;28;20060;-48
2024/01/18 16:58:12;;;;;;;0.20;0.20;;;18.80;38.60;;;;;;8330146;28;20104;-47
2024/01/18 17:02:14;;;;;;;0.30;0.20;;;18.80;38.10;;;;;;8329668;28;20044;-47
2024/01/18 17:06:15;;;;;;;0.30;0.30;;;18.90;37.80;;;;;;8329677;28;20120;-48
2024/01/18 17:10:15;;;;;;;0.25;0.25;;;18.90;37.60;;;;;;8329474;28;20061;-48
2024/01/18 17:14:16;;;;;;;0.30;0.30;;;19.00;37.40;;;;;;8328716;28;20091;-47
2024/01/18 17:18:17;;;;;;;0.30;0.30;;;19.10;37.30;;;;;;8329571;28;20030;-48
2024/01/18 17:22:17;;;;;;;0.20;0.20;;;19.10;37.10;;;;;;8329219;28;20072;-48
2024/01/18 17:26:18;;;;;;;0.30;0.30;;;19.10;36.90;;;;;;8329252;28;20310;-48
2024/01/18 17:30:19;;;;;;;0.20;0.20;;;19.10;36.80;;;;;;8328877;28;20483;-48
2024/01/18 17:34:21;;;;;;;0.32;0.32;;;19.20;36.70;;;;;;8328084;28;20053;-48
2024/01/18 17:38:24;;;;;;;0.30;0.30;;;19.20;37.00;;;;;;8328640;28;20032;-48
2024/01/18 17:42:24;;;;;;;0.28;0.28;;;18.90;38.00;;;;;;8328745;28;20033;-47
2024/01/18 17:46:25;;;;;;;1.25;0.60;;;18.80;38.30;;;;;;8328316;28;20037;-49
2024/01/18 17:50:26;;;;;;;0.30;0.30;;;18.90;37.90;;;;;;8327910;28;20040;-48
2024/01/18 17:54:27;;;;;;;0.30;0.30;;;19.00;37.60;;;;;;8328389;28;20030;-47
2024/01/18 17:58:28;;;;;;;0.20;0.20;;;19.10;37.30;;;;;;8327979;28;20058;-48
2024/01/18 18:02:28;;;;;;;0.30;0.30;;;19.10;37.20;;;;;;8327918;28;20410;-48
2024/01/18 18:06:29;;;;;;;0.30;0.30;;;19.10;37.00;;;;;;8327812;28;20025;-48
2024/01/18 18:10:30;;;;;;;0.20;0.20;;;19.10;36.90;;;;;;8327630;28;20057;-48
2024/01/18 18:14:31;;;;;;;0.20;0.20;;;19.20;36.90;;;;;;8327545;28;20033;-47
2024/01/18 18:18:32;;;;;;;0.30;0.30;;;19.20;36.70;;;;;;8327609;28;20040;-49
2024/01/18 18:22:33;;;;;;;;;;;19.20;36.60;;;;;;8326564;28;20541;-49
2024/01/18 18:26:33;;;;;;;0.40;0.40;;;19.20;37.00;;;;;;8327745;28;20251;-47
2024/01/18 18:30:34;;;;;;;0.20;0.20;;;18.90;38.00;;;;;;8327163;28;20040;-47
2024/01/18 18:34:35;;;;;;;0.20;0.20;;;18.90;38.20;;;;;;8325769;28;20061;-48
2024/01/18 18:38:36;;;;;;;0.30;0.30;;;18.90;37.80;;;;;;8327133;28;20113;-49
2024/01/18 18:42:36;;;;;;;0.38;0.38;;;19.00;37.50;;;;;;8327109;28;20044;-48
2024/01/18 18:46:37;;;;;;;0.30;0.30;;;19.10;37.30;;;;;;8326579;28;20487;-51
2024/01/18 18:50:38;;;;;;;0.30;0.30;;;19.10;37.10;;;;;;8326813;28;20033;-47
2024/01/18 18:54:39;;;;;;;0.30;0.30;;;19.10;37.00;;;;;;8326582;28;20036;-49
2024/01/18 18:58:39;;;;;;;0.20;0.20;;;19.20;36.90;;;;;;8326573;28;20040;-49
2024/01/18 19:02:40;;;;;;;0.38;0.38;;;19.10;36.80;;;;;;8326593;28;20189;-47
2024/01/18 19:06:41;;;;;;;0.50;0.40;;;19.20;36.80;;;;;;8326375;28;20395;-48
2024/01/18 19:10:41;;;;;;;0.20;0.20;;;19.20;36.70;;;;;;8326205;28;20475;-48
2024/01/18 19:14:43;;;;;;;0.30;0.30;;;19.10;37.00;;;;;;8326423;28;20119;-49
2024/01/18 19:18:45;;;;;;;;;;;18.90;38.00;;;;;;8326798;28;20034;-49
2024/01/18 19:22:46;;;;;;;0.20;0.20;;;18.80;38.20;;;;;;8326380;28;20563;-50
2024/01/18 19:26:46;;;;;;;0.30;0.30;;;18.90;37.80;;;;;;8326264;28;20038;-47
2024/01/18 19:30:47;;;;;;;0.20;0.20;;;19.10;37.40;;;;;;8326140;28;20045;-47
2024/01/18 19:34:48;;;;;;;0.20;0.20;;;19.10;37.30;;;;;;8326083;28;20295;-47
2024/01/18 19:38:48;;;;;;;0.40;0.40;;;19.10;37.10;;;;;;8326414;28;20033;-48
2024/01/18 19:42:49;;;;;;;0.30;0.30;;;19.20;37.00;;;;;;8325978;28;20447;-48
2024/01/18 19:46:50;;;;;;;0.20;0.20;;;19.20;36.80;;;;;;8326083;28;20342;-48
2024/01/18 19:50:51;;;;;;;0.40;0.40;;;19.20;36.70;;;;;;8326064;28;20037;-47
2024/01/18 19:54:51;;;;;;;1.23;0.30;;;19.20;36.60;;;;;;8324492;28;20026;-47
2024/01/18 19:58:52;;;;;;;0.30;0.30;;;19.20;36.60;;;;;;8328831;28;20033;-48
2024/01/18 20:02:54;;;;;;;0.30;0.30;;;19.20;37.10;;;;;;8332171;28;20030;-47
2024/01/18 20:06:54;;;;;;;0.20;0.20;;;18.90;38.00;;;;;;8331878;28;20433;-48
2024/01/18 20:10:55;;;;;;;0.50;0.30;;;18.80;38.10;;;;;;8329997;28;20119;-48
2024/01/18 20:14:56;;;;;;;0.30;0.30;;;19.00;37.70;;;;;;8331298;28;20418;-48
2024/01/18 20:18:57;;;;;;;0.30;0.30;;;19.00;37.40;;;;;;8331385;28;20041;-48
2024/01/18 20:22:57;;;;;;;0.30;0.30;;;19.10;37.20;;;;;;8331389;28;20057;-48
2024/01/18 20:26:58;;;;;;;0.30;0.30;;;19.10;37.00;;;;;;8330831;28;20021;-48
2024/01/18 20:30:59;;;;;;;0.30;0.30;;;19.10;36.90;;;;;;8329691;28;20095;-48
2024/01/18 20:34:59;;;;;;;0.40;0.40;;;19.10;37.00;;;;;;8330729;28;20527;-50
2024/01/18 20:39:01;;;;;;;0.40;0.40;;;19.10;36.80;;;;;;8330560;28;20044;-48
2024/01/18 20:43:02;;;;;;;0.30;0.30;;;19.10;36.70;;;;;;8330928;28;20083;-47
2024/01/18 20:47:03;;;;;;;0.40;0.40;;;19.10;36.60;;;;;;8330576;28;20048;-47
2024/01/18 20:51:03;;;;;;;0.30;0.30;;;19.00;37.20;;;;;;8330109;28;20033;-48
2024/01/18 20:55:04;;;;;;;0.30;0.30;;;18.80;38.20;;;;;;8330141;28;20396;-48